sensor_id;sensor_type;location;lat;lon;timestamp;temperature;humidity
22491;DHT22;11412;50.802;4.350;2023-04-27T00:02:17;6.60;99.90
22491;DHT22;11412;50.802;4.350;2023-04-27T00:04:44;6.50;99.90
22491;DHT22;11412;50.802;4.350;2023-04-27T00:07:10;6.50;99.90
22491;DHT22;11412;50.802;4.350;2023-04-27T00:09:36;6.50;99.90
22491;DHT22;11412;50.802;4.350;2023-04-27T00:12:01;6.50;99.90
22491;DHT22;11412;50.802;4.350;2023-04-27T00:14:27;6.50;99.90
22491;DHT22;11412;50.802;4.350;2023-04-27T00:16:54;6.40;99.90
22491;DHT22;11412;50.802;4.350;2023-04-27T00:19:19;6.30;99.90
22491;DHT22;11412;50.802;4.350;2023-04-27T00:21:47;6.50;99.90
22491;DHT22;11412;50.802;4.350;2023-04-27T00:24:13;6.30;99.90
22491;DHT22;11412;50.802;4.350;2023-04-27T00:26:38;6.30;99.90
22491;DHT22;11412;50.802;4.350;2023-04-27T00:29:04;6.30;99.90
22491;DHT22;11412;50.802;4.350;2023-04-27T00:31:30;6.20;99.90
22491;DHT22;11412;50.802;4.350;2023-04-27T00:33:55;6.20;99.90
22491;DHT22;11412;50.802;4.350;2023-04-27T00:36:21;6.20;99.90
22491;DHT22;11412;50.802;4.350;2023-04-27T00:38:47;6.20;99.90
22491;DHT22;11412;50.802;4.350;2023-04-27T00:41:12;6.20;99.90
22491;DHT22;11412;50.802;4.350;2023-04-27T00:43:42;6.10;99.90
22491;DHT22;11412;50.802;4.350;2023-04-27T00:46:08;6.10;99.90
22491;DHT22;11412;50.802;4.350;2023-04-27T00:48:35;6.00;99.90
22491;DHT22;11412;50.802;4.350;2023-04-27T00:51:00;6.00;99.90
22491;DHT22;11412;50.802;4.350;2023-04-27T00:53:26;6.10;99.90
22491;DHT22;11412;50.802;4.350;2023-04-27T00:55:52;6.10;99.90
22491;DHT22;11412;50.802;4.350;2023-04-27T00:58:19;6.10;99.90
22491;DHT22;11412;50.802;4.350;2023-04-27T01:00:44;6.00;99.90
22491;DHT22;11412;50.802;4.350;2023-04-27T01:03:10;6.00;99.90
22491;DHT22;11412;50.802;4.350;2023-04-27T01:05:36;6.00;99.90
22491;DHT22;11412;50.802;4.350;2023-04-27T01:08:02;6.10;99.90
22491;DHT22;11412;50.802;4.350;2023-04-27T01:10:28;6.00;99.90
22491;DHT22;11412;50.802;4.350;2023-04-27T01:12:54;6.00;99.90
22491;DHT22;11412;50.802;4.350;2023-04-27T01:15:20;6.00;99.90
22491;DHT22;11412;50.802;4.350;2023-04-27T01:17:45;6.00;99.90
22491;DHT22;11412;50.802;4.350;2023-04-27T01:20:11;5.90;99.90
22491;DHT22;11412;50.802;4.350;2023-04-27T01:22:37;6.00;99.90
22491;DHT22;11412;50.802;4.350;2023-04-27T01:25:04;5.90;99.90
22491;DHT22;11412;50.802;4.350;2023-04-27T01:27:31;5.90;99.90
22491;DHT22;11412;50.802;4.350;2023-04-27T01:29:57;6.10;99.90
22491;DHT22;11412;50.802;4.350;2023-04-27T01:32:22;6.00;99.90
22491;DHT22;11412;50.802;4.350;2023-04-27T01:34:48;6.10;99.90
22491;DHT22;11412;50.802;4.350;2023-04-27T01:37:13;6.00;99.90
22491;DHT22;11412;50.802;4.350;2023-04-27T01:39:40;6.00;99.90
22491;DHT22;11412;50.802;4.350;2023-04-27T01:42:05;6.10;99.90
22491;DHT22;11412;50.802;4.350;2023-04-27T01:44:31;6.00;99.90
22491;DHT22;11412;50.802;4.350;2023-04-27T01:46:57;6.10;99.90
22491;DHT22;11412;50.802;4.350;2023-04-27T01:49:22;6.10;99.90
22491;DHT22;11412;50.802;4.350;2023-04-27T01:51:48;6.10;99.90
22491;DHT22;11412;50.802;4.350;2023-04-27T01:54:14;6.20;99.90
22491;DHT22;11412;50.802;4.350;2023-04-27T01:56:40;6.40;99.90
22491;DHT22;11412;50.802;4.350;2023-04-27T01:59:06;6.40;99.90
22491;DHT22;11412;50.802;4.350;2023-04-27T02:01:32;6.40;99.90
22491;DHT22;11412;50.802;4.350;2023-04-27T02:03:58;6.20;99.90
22491;DHT22;11412;50.802;4.350;2023-04-27T02:06:23;6.20;99.90
22491;DHT22;11412;50.802;4.350;2023-04-27T02:08:49;6.20;99.90
22491;DHT22;11412;50.802;4.350;2023-04-27T02:11:15;6.30;99.90
22491;DHT22;11412;50.802;4.350;2023-04-27T02:13:40;6.20;99.90
22491;DHT22;11412;50.802;4.350;2023-04-27T02:16:06;6.10;99.90
22491;DHT22;11412;50.802;4.350;2023-04-27T02:18:32;6.10;99.90
22491;DHT22;11412;50.802;4.350;2023-04-27T02:20:58;6.10;99.90
22491;DHT22;11412;50.802;4.350;2023-04-27T02:23:23;6.30;99.90
22491;DHT22;11412;50.802;4.350;2023-04-27T02:25:49;6.40;99.90
22491;DHT22;11412;50.802;4.350;2023-04-27T02:28:15;6.30;99.90
22491;DHT22;11412;50.802;4.350;2023-04-27T02:30:41;6.40;99.90
22491;DHT22;11412;50.802;4.350;2023-04-27T02:33:07;6.40;99.90
22491;DHT22;11412;50.802;4.350;2023-04-27T02:35:32;6.40;99.90
22491;DHT22;11412;50.802;4.350;2023-04-27T02:37:58;6.60;99.90
22491;DHT22;11412;50.802;4.350;2023-04-27T02:40:24;6.70;99.90
22491;DHT22;11412;50.802;4.350;2023-04-27T02:42:50;6.60;99.90
22491;DHT22;11412;50.802;4.350;2023-04-27T02:45:16;6.50;99.90
22491;DHT22;11412;50.802;4.350;2023-04-27T02:47:42;6.40;99.90
22491;DHT22;11412;50.802;4.350;2023-04-27T02:50:08;6.50;99.90
22491;DHT22;11412;50.802;4.350;2023-04-27T02:52:34;6.30;99.90
22491;DHT22;11412;50.802;4.350;2023-04-27T02:54:59;6.30;99.90
22491;DHT22;11412;50.802;4.350;2023-04-27T02:57:26;6.30;99.90
22491;DHT22;11412;50.802;4.350;2023-04-27T02:59:52;6.40;99.90
22491;DHT22;11412;50.802;4.350;2023-04-27T03:02:18;6.40;99.90
22491;DHT22;11412;50.802;4.350;2023-04-27T03:04:43;6.50;99.90
22491;DHT22;11412;50.802;4.350;2023-04-27T03:07:09;6.50;99.90
22491;DHT22;11412;50.802;4.350;2023-04-27T03:09:37;6.30;99.90
22491;DHT22;11412;50.802;4.350;2023-04-27T03:12:04;6.20;99.90
22491;DHT22;11412;50.802;4.350;2023-04-27T03:14:29;6.30;99.90
22491;DHT22;11412;50.802;4.350;2023-04-27T03:16:55;6.30;99.90
22491;DHT22;11412;50.802;4.350;2023-04-27T03:19:22;6.10;99.90
22491;DHT22;11412;50.802;4.350;2023-04-27T03:21:48;6.00;99.90
22491;DHT22;11412;50.802;4.350;2023-04-27T03:24:13;5.90;99.90
22491;DHT22;11412;50.802;4.350;2023-04-27T03:26:39;6.00;99.90
22491;DHT22;11412;50.802;4.350;2023-04-27T03:29:05;6.10;99.90
22491;DHT22;11412;50.802;4.350;2023-04-27T03:31:31;5.90;99.90
22491;DHT22;11412;50.802;4.350;2023-04-27T03:33:56;6.00;99.90
22491;DHT22;11412;50.802;4.350;2023-04-27T03:36:22;5.90;99.90
22491;DHT22;11412;50.802;4.350;2023-04-27T03:38:48;5.90;99.90
22491;DHT22;11412;50.802;4.350;2023-04-27T03:41:13;5.80;99.90
22491;DHT22;11412;50.802;4.350;2023-04-27T03:43:39;5.80;99.90
22491;DHT22;11412;50.802;4.350;2023-04-27T03:46:05;5.70;99.90
22491;DHT22;11412;50.802;4.350;2023-04-27T03:48:30;5.70;99.90
22491;DHT22;11412;50.802;4.350;2023-04-27T03:50:56;5.80;99.90
22491;DHT22;11412;50.802;4.350;2023-04-27T03:53:22;5.80;99.90
22491;DHT22;11412;50.802;4.350;2023-04-27T03:55:47;5.70;99.90
22491;DHT22;11412;50.802;4.350;2023-04-27T03:58:13;6.00;99.90
22491;DHT22;11412;50.802;4.350;2023-04-27T04:00:39;5.90;99.90
22491;DHT22;11412;50.802;4.350;2023-04-27T04:03:05;6.00;99.90
22491;DHT22;11412;50.802;4.350;2023-04-27T04:05:32;5.90;99.90
22491;DHT22;11412;50.802;4.350;2023-04-27T04:07:58;6.00;99.90
22491;DHT22;11412;50.802;4.350;2023-04-27T04:10:24;6.00;99.90
22491;DHT22;11412;50.802;4.350;2023-04-27T04:12:51;6.00;99.90
22491;DHT22;11412;50.802;4.350;2023-04-27T04:15:17;6.00;99.90
22491;DHT22;11412;50.802;4.350;2023-04-27T04:17:43;6.00;99.90
22491;DHT22;11412;50.802;4.350;2023-04-27T04:20:10;5.90;99.90
22491;DHT22;11412;50.802;4.350;2023-04-27T04:22:37;6.10;99.90
22491;DHT22;11412;50.802;4.350;2023-04-27T04:25:03;6.10;99.90
22491;DHT22;11412;50.802;4.350;2023-04-27T04:27:30;6.10;99.90
22491;DHT22;11412;50.802;4.350;2023-04-27T04:29:58;6.00;99.90
22491;DHT22;11412;50.802;4.350;2023-04-27T04:32:25;5.90;99.90
22491;DHT22;11412;50.802;4.350;2023-04-27T04:34:52;5.90;99.90
22491;DHT22;11412;50.802;4.350;2023-04-27T04:37:18;6.20;99.90
22491;DHT22;11412;50.802;4.350;2023-04-27T04:39:44;6.20;99.90
22491;DHT22;11412;50.802;4.350;2023-04-27T04:42:10;6.10;99.90
22491;DHT22;11412;50.802;4.350;2023-04-27T04:44:35;6.20;99.90
22491;DHT22;11412;50.802;4.350;2023-04-27T04:47:01;6.10;99.90
22491;DHT22;11412;50.802;4.350;2023-04-27T04:49:27;6.00;99.90
22491;DHT22;11412;50.802;4.350;2023-04-27T04:51:52;6.20;99.90
22491;DHT22;11412;50.802;4.350;2023-04-27T04:54:18;6.10;99.90
22491;DHT22;11412;50.802;4.350;2023-04-27T04:56:44;6.20;99.90
22491;DHT22;11412;50.802;4.350;2023-04-27T04:59:10;6.20;99.90
22491;DHT22;11412;50.802;4.350;2023-04-27T05:01:35;6.10;99.90
22491;DHT22;11412;50.802;4.350;2023-04-27T05:04:01;6.10;99.90
22491;DHT22;11412;50.802;4.350;2023-04-27T05:06:27;6.10;99.90
22491;DHT22;11412;50.802;4.350;2023-04-27T05:08:52;6.10;99.90
22491;DHT22;11412;50.802;4.350;2023-04-27T05:11:18;6.30;99.90
22491;DHT22;11412;50.802;4.350;2023-04-27T05:13:44;6.30;99.90
22491;DHT22;11412;50.802;4.350;2023-04-27T05:16:10;6.50;99.90
22491;DHT22;11412;50.802;4.350;2023-04-27T05:18:35;6.40;99.90
22491;DHT22;11412;50.802;4.350;2023-04-27T05:21:01;6.50;99.90
22491;DHT22;11412;50.802;4.350;2023-04-27T05:23:27;6.40;99.90
22491;DHT22;11412;50.802;4.350;2023-04-27T05:25:53;6.50;99.90
22491;DHT22;11412;50.802;4.350;2023-04-27T05:28:18;6.70;99.90
22491;DHT22;11412;50.802;4.350;2023-04-27T05:30:44;6.70;99.90
22491;DHT22;11412;50.802;4.350;2023-04-27T05:33:10;6.70;99.90
22491;DHT22;11412;50.802;4.350;2023-04-27T05:35:35;6.70;99.90
22491;DHT22;11412;50.802;4.350;2023-04-27T05:38:01;6.70;99.90
22491;DHT22;11412;50.802;4.350;2023-04-27T05:40:27;6.70;99.90
22491;DHT22;11412;50.802;4.350;2023-04-27T05:42:53;6.70;99.90
22491;DHT22;11412;50.802;4.350;2023-04-27T05:45:19;6.70;99.90
22491;DHT22;11412;50.802;4.350;2023-04-27T05:47:46;6.80;99.90
22491;DHT22;11412;50.802;4.350;2023-04-27T05:50:12;7.00;99.90
22491;DHT22;11412;50.802;4.350;2023-04-27T05:52:38;6.80;99.90
22491;DHT22;11412;50.802;4.350;2023-04-27T05:55:04;6.90;99.90
22491;DHT22;11412;50.802;4.350;2023-04-27T05:57:30;7.00;99.90
22491;DHT22;11412;50.802;4.350;2023-04-27T05:59:56;7.00;99.90
22491;DHT22;11412;50.802;4.350;2023-04-27T06:02:22;7.10;99.90
22491;DHT22;11412;50.802;4.350;2023-04-27T06:04:47;7.10;99.90
22491;DHT22;11412;50.802;4.350;2023-04-27T06:07:14;7.20;99.90
22491;DHT22;11412;50.802;4.350;2023-04-27T06:09:40;7.30;99.90
22491;DHT22;11412;50.802;4.350;2023-04-27T06:12:07;7.30;99.90
22491;DHT22;11412;50.802;4.350;2023-04-27T06:14:35;7.40;99.90
22491;DHT22;11412;50.802;4.350;2023-04-27T06:17:02;7.60;99.90
22491;DHT22;11412;50.802;4.350;2023-04-27T06:19:27;7.70;99.90
22491;DHT22;11412;50.802;4.350;2023-04-27T06:21:54;7.90;99.90
22491;DHT22;11412;50.802;4.350;2023-04-27T06:24:20;8.10;99.90
22491;DHT22;11412;50.802;4.350;2023-04-27T06:26:48;8.60;99.90
22491;DHT22;11412;50.802;4.350;2023-04-27T06:29:13;9.00;99.90
22491;DHT22;11412;50.802;4.350;2023-04-27T06:31:39;9.10;99.90
22491;DHT22;11412;50.802;4.350;2023-04-27T06:34:05;9.20;99.90
22491;DHT22;11412;50.802;4.350;2023-04-27T06:36:31;9.70;99.90
22491;DHT22;11412;50.802;4.350;2023-04-27T06:38:57;9.90;99.90
22491;DHT22;11412;50.802;4.350;2023-04-27T06:41:24;10.00;99.90
22491;DHT22;11412;50.802;4.350;2023-04-27T06:43:51;10.20;99.90
22491;DHT22;11412;50.802;4.350;2023-04-27T06:46:17;10.20;99.90
22491;DHT22;11412;50.802;4.350;2023-04-27T06:48:42;10.30;99.90
22491;DHT22;11412;50.802;4.350;2023-04-27T06:51:08;10.60;99.90
22491;DHT22;11412;50.802;4.350;2023-04-27T06:53:34;10.30;99.90
22491;DHT22;11412;50.802;4.350;2023-04-27T06:56:00;10.00;99.90
22491;DHT22;11412;50.802;4.350;2023-04-27T06:58:26;10.00;99.90
22491;DHT22;11412;50.802;4.350;2023-04-27T07:00:52;10.40;99.90
22491;DHT22;11412;50.802;4.350;2023-04-27T07:03:18;10.40;99.90
22491;DHT22;11412;50.802;4.350;2023-04-27T07:05:44;10.50;99.90
22491;DHT22;11412;50.802;4.350;2023-04-27T07:08:10;10.60;99.90
22491;DHT22;11412;50.802;4.350;2023-04-27T07:10:36;10.70;99.90
22491;DHT22;11412;50.802;4.350;2023-04-27T07:13:02;11.00;99.90
22491;DHT22;11412;50.802;4.350;2023-04-27T07:15:31;10.80;99.90
22491;DHT22;11412;50.802;4.350;2023-04-27T07:17:57;10.90;99.90
22491;DHT22;11412;50.802;4.350;2023-04-27T07:20:23;11.00;99.90
22491;DHT22;11412;50.802;4.350;2023-04-27T07:22:48;11.10;99.90
22491;DHT22;11412;50.802;4.350;2023-04-27T07:25:14;11.20;99.90
22491;DHT22;11412;50.802;4.350;2023-04-27T07:27:40;11.60;99.90
22491;DHT22;11412;50.802;4.350;2023-04-27T07:30:06;11.80;99.90
22491;DHT22;11412;50.802;4.350;2023-04-27T07:32:35;12.00;99.90
22491;DHT22;11412;50.802;4.350;2023-04-27T07:35:01;11.80;99.90
22491;DHT22;11412;50.802;4.350;2023-04-27T07:37:29;11.70;99.90
22491;DHT22;11412;50.802;4.350;2023-04-27T07:39:55;12.00;99.90
22491;DHT22;11412;50.802;4.350;2023-04-27T07:42:24;12.30;99.90
22491;DHT22;11412;50.802;4.350;2023-04-27T07:44:50;12.30;99.90
22491;DHT22;11412;50.802;4.350;2023-04-27T07:47:16;12.10;99.90
22491;DHT22;11412;50.802;4.350;2023-04-27T07:49:44;12.30;99.90
22491;DHT22;11412;50.802;4.350;2023-04-27T07:52:13;12.20;99.90
22491;DHT22;11412;50.802;4.350;2023-04-27T07:54:39;12.30;99.90
22491;DHT22;11412;50.802;4.350;2023-04-27T07:57:09;12.20;99.90
22491;DHT22;11412;50.802;4.350;2023-04-27T07:59:36;12.20;99.90
22491;DHT22;11412;50.802;4.350;2023-04-27T08:02:02;12.40;99.90
22491;DHT22;11412;50.802;4.350;2023-04-27T08:04:28;12.40;99.90
22491;DHT22;11412;50.802;4.350;2023-04-27T08:06:53;12.60;99.90
22491;DHT22;11412;50.802;4.350;2023-04-27T08:09:19;12.30;99.90
22491;DHT22;11412;50.802;4.350;2023-04-27T08:11:45;12.20;99.90
22491;DHT22;11412;50.802;4.350;2023-04-27T08:14:12;12.60;99.90
22491;DHT22;11412;50.802;4.350;2023-04-27T08:16:42;12.50;99.90
22491;DHT22;11412;50.802;4.350;2023-04-27T08:19:11;12.70;99.90
22491;DHT22;11412;50.802;4.350;2023-04-27T08:21:37;12.70;99.90
22491;DHT22;11412;50.802;4.350;2023-04-27T08:24:04;12.50;99.90
22491;DHT22;11412;50.802;4.350;2023-04-27T08:26:31;12.50;99.90
22491;DHT22;11412;50.802;4.350;2023-04-27T08:28:57;12.50;99.90
22491;DHT22;11412;50.802;4.350;2023-04-27T08:31:24;12.40;99.90
22491;DHT22;11412;50.802;4.350;2023-04-27T08:33:51;12.70;99.90
22491;DHT22;11412;50.802;4.350;2023-04-27T08:36:23;13.00;99.90
22491;DHT22;11412;50.802;4.350;2023-04-27T08:38:49;13.20;99.90
22491;DHT22;11412;50.802;4.350;2023-04-27T08:41:22;13.40;99.90
22491;DHT22;11412;50.802;4.350;2023-04-27T08:43:51;13.60;99.90
22491;DHT22;11412;50.802;4.350;2023-04-27T08:46:22;13.60;99.90
22491;DHT22;11412;50.802;4.350;2023-04-27T08:48:52;13.50;99.90
22491;DHT22;11412;50.802;4.350;2023-04-27T08:51:18;13.50;99.90
22491;DHT22;11412;50.802;4.350;2023-04-27T08:53:52;13.70;99.90
22491;DHT22;11412;50.802;4.350;2023-04-27T08:56:19;14.20;99.90
22491;DHT22;11412;50.802;4.350;2023-04-27T08:58:48;14.30;99.90
22491;DHT22;11412;50.802;4.350;2023-04-27T09:01:14;14.30;99.90
22491;DHT22;11412;50.802;4.350;2023-04-27T09:03:40;14.30;99.90
22491;DHT22;11412;50.802;4.350;2023-04-27T09:06:07;14.60;99.90
22491;DHT22;11412;50.802;4.350;2023-04-27T09:08:46;14.40;99.90
22491;DHT22;11412;50.802;4.350;2023-04-27T09:11:29;14.70;99.90
22491;DHT22;11412;50.802;4.350;2023-04-27T09:13:57;14.80;99.90
22491;DHT22;11412;50.802;4.350;2023-04-27T09:16:24;14.80;99.90
22491;DHT22;11412;50.802;4.350;2023-04-27T09:18:49;15.10;99.90
22491;DHT22;11412;50.802;4.350;2023-04-27T09:21:26;14.90;99.90
22491;DHT22;11412;50.802;4.350;2023-04-27T09:23:52;14.90;99.90
22491;DHT22;11412;50.802;4.350;2023-04-27T09:26:19;14.90;99.90
22491;DHT22;11412;50.802;4.350;2023-04-27T09:28:50;15.10;99.90
22491;DHT22;11412;50.802;4.350;2023-04-27T09:31:17;15.30;99.90
22491;DHT22;11412;50.802;4.350;2023-04-27T09:33:44;15.50;99.90
22491;DHT22;11412;50.802;4.350;2023-04-27T09:36:10;15.40;99.90
22491;DHT22;11412;50.802;4.350;2023-04-27T09:38:36;15.20;99.90
22491;DHT22;11412;50.802;4.350;2023-04-27T09:41:02;15.20;99.90
22491;DHT22;11412;50.802;4.350;2023-04-27T09:43:28;15.40;99.90
22491;DHT22;11412;50.802;4.350;2023-04-27T09:45:56;15.60;99.90
22491;DHT22;11412;50.802;4.350;2023-04-27T09:48:24;15.70;99.90
22491;DHT22;11412;50.802;4.350;2023-04-27T09:50:51;15.70;99.90
22491;DHT22;11412;50.802;4.350;2023-04-27T09:53:29;15.60;99.90
22491;DHT22;11412;50.802;4.350;2023-04-27T10:01:59;15.90;99.90
22491;DHT22;11412;50.802;4.350;2023-04-27T10:07:03;15.80;99.90
22491;DHT22;11412;50.802;4.350;2023-04-27T10:09:39;15.90;99.90
22491;DHT22;11412;50.802;4.350;2023-04-27T10:12:19;16.10;99.90
22491;DHT22;11412;50.802;4.350;2023-04-27T10:14:56;16.20;99.90
22491;DHT22;11412;50.802;4.350;2023-04-27T10:17:29;16.20;99.90
22491;DHT22;11412;50.802;4.350;2023-04-27T10:20:06;16.30;99.90
22491;DHT22;11412;50.802;4.350;2023-04-27T10:22:59;16.50;99.90
22491;DHT22;11412;50.802;4.350;2023-04-27T10:25:28;16.60;99.90
22491;DHT22;11412;50.802;4.350;2023-04-27T10:27:57;16.70;99.90
22491;DHT22;11412;50.802;4.350;2023-04-27T10:30:25;16.60;99.90
22491;DHT22;11412;50.802;4.350;2023-04-27T10:32:54;16.60;99.90
22491;DHT22;11412;50.802;4.350;2023-04-27T10:35:42;16.40;99.90
22491;DHT22;11412;50.802;4.350;2023-04-27T10:38:20;16.30;99.90
22491;DHT22;11412;50.802;4.350;2023-04-27T10:40:58;16.30;99.90
22491;DHT22;11412;50.802;4.350;2023-04-27T10:43:28;16.50;99.90
22491;DHT22;11412;50.802;4.350;2023-04-27T10:46:05;16.60;99.90
22491;DHT22;11412;50.802;4.350;2023-04-27T10:48:31;16.70;99.90
22491;DHT22;11412;50.802;4.350;2023-04-27T10:50:57;16.70;99.90
22491;DHT22;11412;50.802;4.350;2023-04-27T10:53:25;17.00;99.90
22491;DHT22;11412;50.802;4.350;2023-04-27T10:55:55;17.10;99.60
22491;DHT22;11412;50.802;4.350;2023-04-27T10:58:24;17.40;99.90
22491;DHT22;11412;50.802;4.350;2023-04-27T11:00:50;17.30;99.70
22491;DHT22;11412;50.802;4.350;2023-04-27T11:03:18;17.00;97.10
22491;DHT22;11412;50.802;4.350;2023-04-27T11:05:46;17.10;99.40
22491;DHT22;11412;50.802;4.350;2023-04-27T11:08:16;17.30;99.90
22491;DHT22;11412;50.802;4.350;2023-04-27T11:10:45;17.70;99.90
22491;DHT22;11412;50.802;4.350;2023-04-27T11:13:15;17.90;99.90
22491;DHT22;11412;50.802;4.350;2023-04-27T11:15:52;17.50;98.40
22491;DHT22;11412;50.802;4.350;2023-04-27T11:18:26;17.50;99.00
22491;DHT22;11412;50.802;4.350;2023-04-27T11:21:11;17.70;97.80
22491;DHT22;11412;50.802;4.350;2023-04-27T11:23:37;17.70;97.30
22491;DHT22;11412;50.802;4.350;2023-04-27T11:26:20;17.80;97.70
22491;DHT22;11412;50.802;4.350;2023-04-27T11:29:01;18.00;95.60
22491;DHT22;11412;50.802;4.350;2023-04-27T11:31:46;17.70;97.60
22491;DHT22;11412;50.802;4.350;2023-04-27T11:36:41;17.30;99.90
22491;DHT22;11412;50.802;4.350;2023-04-27T11:39:07;17.40;98.10
22491;DHT22;11412;50.802;4.350;2023-04-27T11:41:35;17.40;98.90
22491;DHT22;11412;50.802;4.350;2023-04-27T11:44:05;17.70;97.90
22491;DHT22;11412;50.802;4.350;2023-04-27T11:46:36;17.80;97.50
22491;DHT22;11412;50.802;4.350;2023-04-27T11:49:06;17.50;98.20
22491;DHT22;11412;50.802;4.350;2023-04-27T11:51:35;17.60;99.90
22491;DHT22;11412;50.802;4.350;2023-04-27T11:54:05;17.40;99.40
22491;DHT22;11412;50.802;4.350;2023-04-27T11:56:39;17.70;99.90
22491;DHT22;11412;50.802;4.350;2023-04-27T11:59:05;18.10;97.60
22491;DHT22;11412;50.802;4.350;2023-04-27T12:01:42;18.00;96.80
22491;DHT22;11412;50.802;4.350;2023-04-27T12:04:07;17.80;96.90
22491;DHT22;11412;50.802;4.350;2023-04-27T12:06:33;17.90;96.70
22491;DHT22;11412;50.802;4.350;2023-04-27T12:08:59;18.10;97.90
22491;DHT22;11412;50.802;4.350;2023-04-27T12:11:25;18.00;99.20
22491;DHT22;11412;50.802;4.350;2023-04-27T12:13:54;18.50;99.90
22491;DHT22;11412;50.802;4.350;2023-04-27T12:16:21;18.80;98.30
22491;DHT22;11412;50.802;4.350;2023-04-27T12:18:50;18.80;96.20
22491;DHT22;11412;50.802;4.350;2023-04-27T12:21:17;18.80;95.50
22491;DHT22;11412;50.802;4.350;2023-04-27T12:23:42;18.90;96.10
22491;DHT22;11412;50.802;4.350;2023-04-27T12:26:08;19.10;97.10
22491;DHT22;11412;50.802;4.350;2023-04-27T12:28:34;19.10;96.00
22491;DHT22;11412;50.802;4.350;2023-04-27T12:31:03;19.00;96.10
22491;DHT22;11412;50.802;4.350;2023-04-27T12:33:29;18.80;95.70
22491;DHT22;11412;50.802;4.350;2023-04-27T12:35:55;18.80;96.50
22491;DHT22;11412;50.802;4.350;2023-04-27T12:38:21;18.70;97.80
22491;DHT22;11412;50.802;4.350;2023-04-27T12:40:47;19.10;96.70
22491;DHT22;11412;50.802;4.350;2023-04-27T12:43:13;19.20;95.90
22491;DHT22;11412;50.802;4.350;2023-04-27T12:45:39;19.00;96.20
22491;DHT22;11412;50.802;4.350;2023-04-27T12:48:05;19.20;96.00
22491;DHT22;11412;50.802;4.350;2023-04-27T12:50:31;19.30;96.60
22491;DHT22;11412;50.802;4.350;2023-04-27T12:52:57;18.80;95.20
22491;DHT22;11412;50.802;4.350;2023-04-27T12:55:23;19.20;96.70
22491;DHT22;11412;50.802;4.350;2023-04-27T12:57:48;19.40;97.70
22491;DHT22;11412;50.802;4.350;2023-04-27T13:00:14;19.70;95.90
22491;DHT22;11412;50.802;4.350;2023-04-27T13:02:40;19.70;94.50
22491;DHT22;11412;50.802;4.350;2023-04-27T13:05:07;19.20;95.40
22491;DHT22;11412;50.802;4.350;2023-04-27T13:07:34;19.20;94.40
22491;DHT22;11412;50.802;4.350;2023-04-27T13:10:00;19.00;94.40
22491;DHT22;11412;50.802;4.350;2023-04-27T13:12:26;18.90;95.90
22491;DHT22;11412;50.802;4.350;2023-04-27T13:14:52;19.20;95.60
22491;DHT22;11412;50.802;4.350;2023-04-27T13:17:18;19.40;93.60
22491;DHT22;11412;50.802;4.350;2023-04-27T13:19:43;19.50;97.20
22491;DHT22;11412;50.802;4.350;2023-04-27T13:22:09;19.50;95.00
22491;DHT22;11412;50.802;4.350;2023-04-27T13:24:35;20.00;94.10
22491;DHT22;11412;50.802;4.350;2023-04-27T13:27:02;19.70;93.90
22491;DHT22;11412;50.802;4.350;2023-04-27T13:29:27;19.50;95.60
22491;DHT22;11412;50.802;4.350;2023-04-27T13:31:53;19.90;95.10
22491;DHT22;11412;50.802;4.350;2023-04-27T13:34:19;20.10;94.40
22491;DHT22;11412;50.802;4.350;2023-04-27T13:36:45;19.90;93.10
22491;DHT22;11412;50.802;4.350;2023-04-27T13:39:11;19.10;94.20
22491;DHT22;11412;50.802;4.350;2023-04-27T13:41:37;19.10;94.10
22491;DHT22;11412;50.802;4.350;2023-04-27T13:44:03;19.00;93.00
22491;DHT22;11412;50.802;4.350;2023-04-27T13:46:28;18.40;94.70
22491;DHT22;11412;50.802;4.350;2023-04-27T13:48:54;18.90;94.30
22491;DHT22;11412;50.802;4.350;2023-04-27T13:51:22;19.60;93.60
22491;DHT22;11412;50.802;4.350;2023-04-27T13:53:49;19.70;94.00
22491;DHT22;11412;50.802;4.350;2023-04-27T13:56:15;19.80;93.80
22491;DHT22;11412;50.802;4.350;2023-04-27T13:58:40;19.10;93.80
22491;DHT22;11412;50.802;4.350;2023-04-27T14:01:06;19.50;94.30
22491;DHT22;11412;50.802;4.350;2023-04-27T14:03:34;19.30;94.50
22491;DHT22;11412;50.802;4.350;2023-04-27T14:06:00;19.00;96.20
22491;DHT22;11412;50.802;4.350;2023-04-27T14:08:26;18.60;93.80
22491;DHT22;11412;50.802;4.350;2023-04-27T14:10:52;19.00;95.40
22491;DHT22;11412;50.802;4.350;2023-04-27T14:13:18;19.40;94.60
22491;DHT22;11412;50.802;4.350;2023-04-27T14:15:44;19.80;94.30
22491;DHT22;11412;50.802;4.350;2023-04-27T14:18:10;19.20;93.60
22491;DHT22;11412;50.802;4.350;2023-04-27T14:20:37;18.60;93.80
22491;DHT22;11412;50.802;4.350;2023-04-27T14:23:04;18.00;94.40
22491;DHT22;11412;50.802;4.350;2023-04-27T14:25:30;17.90;94.60
22491;DHT22;11412;50.802;4.350;2023-04-27T14:28:00;18.20;97.10
22491;DHT22;11412;50.802;4.350;2023-04-27T14:30:27;18.40;94.70
22491;DHT22;11412;50.802;4.350;2023-04-27T14:32:53;18.80;94.20
22491;DHT22;11412;50.802;4.350;2023-04-27T14:35:19;19.20;94.90
22491;DHT22;11412;50.802;4.350;2023-04-27T14:37:45;18.90;95.20
22491;DHT22;11412;50.802;4.350;2023-04-27T14:40:12;18.60;94.90
22491;DHT22;11412;50.802;4.350;2023-04-27T14:42:38;18.60;95.00
22491;DHT22;11412;50.802;4.350;2023-04-27T14:45:04;19.10;94.00
22491;DHT22;11412;50.802;4.350;2023-04-27T14:47:30;19.50;93.80
22491;DHT22;11412;50.802;4.350;2023-04-27T14:49:56;19.00;94.60
22491;DHT22;11412;50.802;4.350;2023-04-27T14:52:22;18.50;95.30
22491;DHT22;11412;50.802;4.350;2023-04-27T14:54:47;18.00;95.80
22491;DHT22;11412;50.802;4.350;2023-04-27T14:57:13;18.00;96.70
22491;DHT22;11412;50.802;4.350;2023-04-27T14:59:39;17.90;98.30
22491;DHT22;11412;50.802;4.350;2023-04-27T15:02:05;17.70;97.20
22491;DHT22;11412;50.802;4.350;2023-04-27T15:04:30;17.30;97.00
22491;DHT22;11412;50.802;4.350;2023-04-27T15:06:56;17.40;98.20
22491;DHT22;11412;50.802;4.350;2023-04-27T15:09:22;17.40;97.60
22491;DHT22;11412;50.802;4.350;2023-04-27T15:11:47;17.50;97.40
22491;DHT22;11412;50.802;4.350;2023-04-27T15:14:13;17.50;97.40
22491;DHT22;11412;50.802;4.350;2023-04-27T15:16:39;17.20;97.70
22491;DHT22;11412;50.802;4.350;2023-04-27T15:19:04;16.90;97.80
22491;DHT22;11412;50.802;4.350;2023-04-27T15:21:32;16.80;98.20
22491;DHT22;11412;50.802;4.350;2023-04-27T15:23:58;17.00;98.20
22491;DHT22;11412;50.802;4.350;2023-04-27T15:26:25;17.40;99.10
22491;DHT22;11412;50.802;4.350;2023-04-27T15:28:51;17.00;99.10
22491;DHT22;11412;50.802;4.350;2023-04-27T15:31:17;16.90;99.70
22491;DHT22;11412;50.802;4.350;2023-04-27T15:33:43;17.00;99.90
22491;DHT22;11412;50.802;4.350;2023-04-27T15:36:08;17.10;99.50
22491;DHT22;11412;50.802;4.350;2023-04-27T15:38:34;16.90;99.40
22491;DHT22;11412;50.802;4.350;2023-04-27T15:41:00;16.70;99.90
22491;DHT22;11412;50.802;4.350;2023-04-27T15:43:26;16.80;99.90
22491;DHT22;11412;50.802;4.350;2023-04-27T15:45:52;16.80;99.60
22491;DHT22;11412;50.802;4.350;2023-04-27T15:48:18;16.60;99.70